Time;durP1;ratioP1;P1;durP2;ratioP2;P2;SDS_P1;SDS_P2;PMS_P1;PMS_P2;Temp;Humidity;BMP_temperature;BMP_pressure;BME280_temperature;BME280_humidity;BME280_pressure;Samples;Min_cycle;Max_cycle;Signal;HPM_P1;HPM_P2
2023/07/16 00:01:25;;;;;;;;;;;;;;;16.92;44.74;101060.84;4997890;28;1211;-52
2023/07/16 00:03:50;;;;;;;;;;;;;;;16.86;45.05;101059.97;4997328;28;1984;-53
2023/07/16 00:06:16;;;;;;;;;;;;;;;16.86;45.06;101053.66;4997435;28;1096;-53
2023/07/16 00:08:41;;;;;;;;;;;;;;;16.79;44.90;101059.38;4997162;28;1191;-54
2023/07/16 00:11:07;;;;;;;;;;;;;;;16.74;45.18;101051.94;4997473;28;1037;-51
2023/07/16 00:13:33;;;;;;;;;;;;;;;16.85;44.86;101052.00;4997446;28;1106;-50
2023/07/16 00:15:58;;;;;;;;;;;;;;;16.91;44.95;101050.94;4997446;28;1120;-53
2023/07/16 00:18:23;;;;;;;;;;;;;;;16.81;45.07;101045.38;4996301;28;1127;-52
2023/07/16 00:20:49;;;;;;;;;;;;;;;16.76;44.95;101049.75;4997586;28;2370;-51
2023/07/16 00:23:14;;;;;;;;;;;;;;;16.73;45.08;101043.97;4997093;28;1981;-53
2023/07/16 00:25:40;;;;;;;;;;;;;;;16.82;45.06;101052.53;4997019;28;1026;-54
2023/07/16 00:28:05;;;;;;;;;;;;;;;16.75;45.00;101050.84;4997357;28;1056;-51
2023/07/16 00:30:31;;;;;;;;;;;;;;;16.75;45.13;101037.13;4996126;28;1595;-54
2023/07/16 00:32:56;;;;;;;;;;;;;;;16.72;45.05;101032.16;4997281;28;1024;-53
2023/07/16 00:35:22;;;;;;;;;;;;;;;16.75;45.01;101030.81;4995650;28;1091;-53
2023/07/16 00:37:47;;;;;;;;;;;;;;;16.69;45.28;101040.94;4997067;28;1048;-53
2023/07/16 00:40:13;;;;;;;;;;;;;;;16.75;45.10;101028.88;4996776;28;1044;-51
2023/07/16 00:42:39;;;;;;;;;;;;;;;16.76;44.91;101036.03;4995540;28;1965;-53
2023/07/16 00:45:04;;;;;;;;;;;;;;;16.75;45.13;101031.63;4997158;28;1001;-52
2023/07/16 00:47:30;;;;;;;;;;;;;;;16.72;45.25;101026.69;4995464;28;1056;-53
2023/07/16 00:49:55;;;;;;;;;;;;;;;16.79;44.88;101023.69;4995730;28;1087;-53
2023/07/16 00:52:21;;;;;;;;;;;;;;;16.81;44.68;101031.66;4997053;28;1836;-51
2023/07/16 00:54:46;;;;;;;;;;;;;;;16.81;44.69;101024.22;4996781;28;1057;-53
2023/07/16 00:57:12;;;;;;;;;;;;;;;16.81;44.79;101017.91;4995040;28;1079;-52
2023/07/16 00:59:37;;;;;;;;;;;;;;;16.86;44.72;101021.50;4995198;28;1064;-53
2023/07/16 01:02:03;;;;;;;;;;;;;;;16.79;44.84;101011.84;4996641;28;1906;-52
2023/07/16 01:04:28;;;;;;;;;;;;;;;16.73;45.19;101011.00;4996843;28;1120;-50
2023/07/16 01:06:55;;;;;;;;;;;;;;;16.73;45.11;101024.75;4996763;28;1219;-53
2023/07/16 01:09:21;;;;;;;;;;;;;;;16.77;45.04;101021.22;4996540;28;1254;-51
2023/07/16 01:11:47;;;;;;;;;;;;;;;16.65;45.21;101020.59;4996267;28;1001;-53
2023/07/16 01:14:12;;;;;;;;;;;;;;;16.76;44.98;101005.81;4996409;28;1080;-52
2023/07/16 01:16:38;;;;;;;;;;;;;;;16.70;44.97;101017.88;4996522;28;1056;-53
2023/07/16 01:19:04;;;;;;;;;;;;;;;16.73;45.13;101000.88;4995221;28;1120;-52
2023/07/16 01:21:34;;;;;;;;;;;;;;;16.83;44.56;101000.09;4995012;28;2473;-52
2023/07/16 01:24:09;;;;;;;;;;;;;;;16.71;45.05;101008.53;4995192;28;1918;-53
2023/07/16 01:26:35;;;;;;;;;;;;;;;16.72;44.99;101009.38;5011435;28;1289;-53
2023/07/16 01:29:12;;;;;;;;;;;;;;;16.71;44.93;101003.06;4996534;28;1183;-52
2023/07/16 01:31:38;;;;;;;;;;;;;;;16.69;44.92;101007.16;4996287;28;1174;-52
2023/07/16 01:34:05;;;;;;;;;;;;;;;16.70;44.72;100995.91;4995405;28;1084;-53
2023/07/16 01:36:30;;;;;;;;;;;;;;;16.69;44.96;100994.28;4995745;28;896;-52
2023/07/16 01:38:56;;;;;;;;;;;;;;;16.64;45.00;100988.75;4995087;28;1231;-53
2023/07/16 01:41:21;;;;;;;;;;;;;;;16.69;44.92;100994.28;4994791;28;1076;-53
2023/07/16 01:43:47;;;;;;;;;;;;;;;16.67;44.96;100987.38;4996637;28;1979;-53
2023/07/16 01:46:12;;;;;;;;;;;;;;;16.73;44.60;100992.63;4996240;28;1136;-53
2023/07/16 01:48:38;;;;;;;;;;;;;;;16.67;44.94;100988.22;4978309;28;1477;-53
2023/07/16 01:51:04;;;;;;;;;;;;;;;16.71;44.49;100992.06;4995640;28;2430;-52
2023/07/16 01:53:29;;;;;;;;;;;;;;;16.65;44.90;100976.69;5000184;28;1103;-50
2023/07/16 01:55:55;;;;;;;;;;;;;;;16.72;44.53;100996.47;4999579;28;1146;-52
2023/07/16 01:58:20;;;;;;;;;;;;;;;16.69;44.71;100990.69;5000007;28;1060;-52
2023/07/16 02:00:49;;;;;;;;;;;;;;;16.63;44.92;100995.31;4998545;28;1210;-52
2023/07/16 02:03:14;;;;;;;;;;;;;;;16.77;44.59;100991.00;4998662;28;1973;-53
2023/07/16 02:05:40;;;;;;;;;;;;;;;16.60;44.82;100987.63;5000014;28;1182;-53
2023/07/16 02:08:06;;;;;;;;;;;;;;;16.70;44.60;100984.91;4998631;28;1220;-53
2023/07/16 02:10:32;;;;;;;;;;;;;;;16.67;44.55;100996.44;4998718;28;1303;-52
2023/07/16 02:12:57;;;;;;;;;;;;;;;16.64;44.52;100996.16;4998063;28;1136;-53
2023/07/16 02:15:24;;;;;;;;;;;;;;;16.70;44.45;100998.66;4998629;28;1094;-52
2023/07/16 02:17:49;;;;;;;;;;;;;;;16.68;44.56;100998.09;4999625;28;1012;-52
2023/07/16 02:20:15;;;;;;;;;;;;;;;16.68;44.54;100998.09;4999866;28;1021;-49
2023/07/16 02:22:40;;;;;;;;;;;;;;;16.70;44.36;100995.09;4999511;28;2657;-51
2023/07/16 02:25:06;;;;;;;;;;;;;;;16.59;44.75;101000.53;4999468;28;849;-52
2023/07/16 02:27:32;;;;;;;;;;;;;;;16.52;44.86;100994.47;4998257;28;1166;-53
2023/07/16 02:29:57;;;;;;;;;;;;;;;16.56;44.90;101001.09;4999462;28;1128;-53
2023/07/16 02:32:23;;;;;;;;;;;;;;;16.57;44.70;100993.66;4999391;28;1024;-52
2023/07/16 02:34:48;;;;;;;;;;;;;;;16.59;44.79;101006.03;4999620;28;1032;-51
2023/07/16 02:37:14;;;;;;;;;;;;;;;16.62;44.71;101001.09;4999241;28;868;-53
2023/07/16 02:39:41;;;;;;;;;;;;;;;16.69;44.46;100999.75;4998883;28;1053;-51
2023/07/16 02:42:08;;;;;;;;;;;;;;;16.75;44.12;100998.66;4998556;28;1910;-50
2023/07/16 02:44:33;;;;;;;;;;;;;;;16.60;44.71;101001.34;4998920;28;1091;-53
2023/07/16 02:46:59;;;;;;;;;;;;;;;16.64;44.52;100996.16;4999367;28;1140;-55
2023/07/16 02:49:25;;;;;;;;;;;;;;;16.68;44.46;101000.84;4997578;28;1272;-50
2023/07/16 02:51:50;;;;;;;;;;;;;;;16.70;44.37;101001.38;4999092;28;2279;-51
2023/07/16 02:54:15;;;;;;;;;;;;;;;16.58;44.44;101003.56;4999085;28;1023;-51
2023/07/16 02:56:41;;;;;;;;;;;;;;;16.56;44.65;101000.25;4999384;28;1040;-51
2023/07/16 02:59:06;;;;;;;;;;;;;;;16.60;44.63;100999.44;4997825;28;1080;-50
2023/07/16 03:01:32;;;;;;;;;;;;;;;16.56;44.68;101003.00;4998529;28;829;-52
2023/07/16 03:03:57;;;;;;;;;;;;;;;16.60;44.43;100999.44;4997562;28;1962;-50
2023/07/16 03:06:23;;;;;;;;;;;;;;;16.62;44.36;100993.69;4998986;28;1128;-52
2023/07/16 03:08:50;;;;;;;;;;;;;;;16.65;44.30;100998.66;4998038;28;1133;-51
2023/07/16 03:11:16;;;;;;;;;;;;;;;16.59;44.56;101008.78;4997498;28;1304;-52
2023/07/16 03:13:42;;;;;;;;;;;;;;;16.62;44.62;101003.84;4998275;28;1017;-52
2023/07/16 03:16:08;;;;;;;;;;;;;;;16.59;44.57;101008.78;4997323;28;1194;-50
2023/07/16 03:18:34;;;;;;;;;;;;;;;16.58;44.45;101014.53;4998477;28;1092;-52
2023/07/16 03:20:59;;;;;;;;;;;;;;;16.62;44.36;101015.66;4997294;28;2279;-53
2023/07/16 03:23:25;;;;;;;;;;;;;;;16.56;44.46;101013.97;4998463;28;1910;-48
2023/07/16 03:25:51;;;;;;;;;;;;;;;16.56;44.65;101016.72;4996805;28;1550;-50
2023/07/16 03:28:17;;;;;;;;;;;;;;;16.56;44.48;101011.22;4996907;28;1386;-49
2023/07/16 03:30:47;;;;;;;;;;;;;;;16.58;44.82;101009.88;4997165;28;1508;-47
2023/07/16 03:33:12;;;;;;;;;;;;;;;16.50;44.80;101010.38;4998092;28;1044;-51
2023/07/16 03:35:38;;;;;;;;;;;;;;;16.55;44.96;101012.31;4997162;28;1089;-53
2023/07/16 03:38:03;;;;;;;;;;;;;;;16.55;44.83;101004.06;4998058;28;1097;-53
2023/07/16 03:40:29;;;;;;;;;;;;;;;16.62;44.77;101004.69;4996511;28;1161;-53
2023/07/16 03:42:55;;;;;;;;;;;;;;;16.54;44.98;101007.94;4998121;28;1914;-56
2023/07/16 03:45:22;;;;;;;;;;;;;;;16.53;45.03;101009.03;4997050;28;1308;-48
2023/07/16 03:47:47;;;;;;;;;;;;;;;16.68;44.66;101014.56;4997055;28;1231;-53
2023/07/16 03:50:13;;;;;;;;;;;;;;;16.59;44.95;101016.16;4996614;28;1305;-50
2023/07/16 03:52:38;;;;;;;;;;;;;;;16.62;44.98;101010.16;4998180;28;1866;-48
2023/07/16 03:55:04;;;;;;;;;;;;;;;16.58;45.02;101020.03;4998090;28;1110;-49
2023/07/16 03:57:29;;;;;;;;;;;;;;;16.63;44.65;101017.28;4997722;28;1043;-54
2023/07/16 03:59:55;;;;;;;;;;;;;;;16.70;44.68;101017.88;4984778;28;1312;-50
2023/07/16 04:02:21;;;;;;;;;;;;;;;16.53;45.33;101023.56;4993528;28;1977;-53
2023/07/16 04:04:46;;;;;;;;;;;;;;;16.59;45.07;101022.50;4997005;28;906;-53
2023/07/16 04:07:12;;;;;;;;;;;;;;;16.67;44.98;101023.91;4996650;28;1123;-52
2023/07/16 04:09:38;;;;;;;;;;;;;;;16.66;44.98;101026.91;4997369;28;1068;-52
2023/07/16 04:12:04;;;;;;;;;;;;;;;16.60;45.01;101021.41;4997840;28;1246;-53
2023/07/16 04:14:29;;;;;;;;;;;;;;;16.63;45.03;101024.72;4997116;28;908;-52
2023/07/16 04:16:55;;;;;;;;;;;;;;;16.68;45.02;101031.06;4997785;28;1144;-53
2023/07/16 04:19:20;;;;;;;;;;;;;;;16.62;45.07;101023.91;4997716;28;1100;-52
2023/07/16 04:21:46;;;;;;;;;;;;;;;16.64;44.96;101029.94;4997815;28;1842;-52
2023/07/16 04:24:11;;;;;;;;;;;;;;;16.57;45.06;101030.16;4996990;28;2021;-52
2023/07/16 04:26:37;;;;;;;;;;;;;;;16.59;45.13;101036.25;4997083;28;1215;-52
2023/07/16 04:29:02;;;;;;;;;;;;;;;16.60;45.35;101032.38;4985712;28;1445;-52
2023/07/16 04:31:28;;;;;;;;;;;;;;;16.62;45.22;101037.63;4996320;28;1113;-49
2023/07/16 04:33:53;;;;;;;;;;;;;;;16.67;45.24;101034.06;4995232;28;988;-48
2023/07/16 04:36:19;;;;;;;;;;;;;;;16.62;45.25;101034.88;4989221;28;992;-51
2023/07/16 04:38:44;;;;;;;;;;;;;;;16.70;44.90;101034.34;4996445;28;993;-51
2023/07/16 04:41:10;;;;;;;;;;;;;;;16.63;45.04;101033.75;4984199;28;1057;-51
2023/07/16 04:43:35;;;;;;;;;;;;;;;16.64;45.11;101035.41;4996661;28;1988;-51
2023/07/16 04:46:01;;;;;;;;;;;;;;;16.57;45.18;101038.41;4984140;28;1021;-51
2023/07/16 04:48:26;;;;;;;;;;;;;;;16.56;45.10;101034.03;4985936;28;1021;-51
2023/07/16 04:50:55;;;;;;;;;;;;;;;17.41;44.35;101038.44;4994726;28;1941;-55
2023/07/16 04:53:21;;;;;;;;;;;;;;;17.63;44.64;101040.13;4996092;28;1207;-54
2023/07/16 04:55:46;;;;;;;;;;;;;;;17.29;45.92;101040.59;4992660;28;1013;-55
2023/07/16 04:58:12;;;;;;;;;;;;;;;17.15;46.56;101043.03;4997243;28;1104;-51
2023/07/16 05:00:37;;;;;;;;;;;;;;;17.06;47.07;101053.75;4996756;28;1175;-47
2023/07/16 05:03:03;;;;;;;;;;;;;;;17.02;47.40;101047.13;4996222;28;1914;-54
2023/07/16 05:05:28;;;;;;;;;;;;;;;16.92;47.99;101058.91;4997240;28;1144;-50
2023/07/16 05:07:54;;;;;;;;;;;;;;;16.91;48.38;101061.94;4995666;28;1310;-56
2023/07/16 05:10:19;;;;;;;;;;;;;;;16.87;48.64;101058.88;4977801;28;1017;-55
2023/07/16 05:12:45;;;;;;;;;;;;;;;16.83;49.01;101067.91;4995765;28;1113;-52
2023/07/16 05:15:10;;;;;;;;;;;;;;;16.82;49.21;101064.34;4996197;28;897;-53
2023/07/16 05:17:36;;;;;;;;;;;;;;;16.76;49.46;101066.25;4996748;28;1152;-56
2023/07/16 05:20:02;;;;;;;;;;;;;;;16.76;49.90;101062.69;4996937;28;1111;-55
2023/07/16 05:22:28;;;;;;;;;;;;;;;16.75;49.81;101070.06;4995793;28;1950;-56
2023/07/16 05:24:53;;;;;;;;;;;;;;;16.76;50.22;101071.72;4984012;28;1415;-48
2023/07/16 05:27:19;;;;;;;;;;;;;;;16.71;50.12;101063.47;4983032;28;1011;-54
2023/07/16 05:29:44;;;;;;;;;;;;;;;16.68;50.52;101064.00;4996512;28;1156;-52
2023/07/16 05:32:10;;;;;;;;;;;;;;;16.68;50.61;101061.25;4996754;28;1071;-54
2023/07/16 05:34:35;;;;;;;;;;;;;;;16.63;50.91;101065.91;4985576;28;1029;-53
2023/07/16 05:37:01;;;;;;;;;;;;;;;16.64;50.95;101071.13;4987843;28;1099;-53
2023/07/16 05:39:26;;;;;;;;;;;;;;;16.61;51.40;101074.41;4996575;28;1135;-55
2023/07/16 05:41:52;;;;;;;;;;;;;;;16.60;51.25;101072.75;4996330;28;1914;-54
2023/07/16 05:44:17;;;;;;;;;;;;;;;16.56;51.86;101077.97;4981762;28;1139;-56
2023/07/16 05:46:43;;;;;;;;;;;;;;;16.58;51.86;101077.69;4996139;28;1132;-54
2023/07/16 05:49:08;;;;;;;;;;;;;;;16.54;51.85;101087.53;4996552;28;1144;-51
2023/07/16 05:51:34;;;;;;;;;;;;;;;16.54;51.96;101077.38;4996439;28;1065;-51
2023/07/16 05:53:59;;;;;;;;;;;;;;;16.53;52.33;101083.13;4996615;28;1127;-50
2023/07/16 05:56:25;;;;;;;;;;;;;;;16.53;52.46;101080.41;4992599;28;1175;-53
2023/07/16 05:58:50;;;;;;;;;;;;;;;16.52;52.60;101081.47;4986908;28;1168;-54
2023/07/16 06:01:16;;;;;;;;;;;;;;;16.51;52.33;101072.44;4996115;28;1160;-54
2023/07/16 06:03:41;;;;;;;;;;;;;;;16.46;53.00;101079.81;4996257;28;1902;-53
2023/07/16 06:06:09;;;;;;;;;;;;;;;16.47;52.83;101081.47;4995999;28;1047;-53
2023/07/16 06:08:35;;;;;;;;;;;;;;;16.46;53.05;101077.88;4996248;28;1215;-51
2023/07/16 06:11:00;;;;;;;;;;;;;;;16.49;53.12;101071.84;4996574;28;1071;-53
2023/07/16 06:13:26;;;;;;;;;;;;;;;16.46;52.97;101068.81;4995967;28;1071;-49
2023/07/16 06:15:51;;;;;;;;;;;;;;;16.48;53.05;101070.22;4995954;28;1136;-51
2023/07/16 06:18:17;;;;;;;;;;;;;;;16.48;53.18;101070.22;4996393;28;1127;-52
2023/07/16 06:20:43;;;;;;;;;;;;;;;16.49;53.42;101071.03;4996172;28;1137;-51
2023/07/16 06:23:11;;;;;;;;;;;;;;;16.47;53.36;101068.56;4995154;28;1906;-54
2023/07/16 06:25:36;;;;;;;;;;;;;;;16.48;53.39;101063.88;4994577;28;1027;-54
2023/07/16 06:28:02;;;;;;;;;;;;;;;16.43;53.57;101060.00;4995962;28;1195;-54
2023/07/16 06:30:27;;;;;;;;;;;;;;;16.49;53.49;101066.34;4995903;28;1517;-56
2023/07/16 06:32:53;;;;;;;;;;;;;;;16.48;53.63;101063.88;4995818;28;1358;-50
2023/07/16 06:35:18;;;;;;;;;;;;;;;16.46;53.77;101075.13;4996187;28;1136;-55
2023/07/16 06:37:44;;;;;;;;;;;;;;;16.43;54.15;101061.94;4997394;28;1172;-50
2023/07/16 06:40:09;;;;;;;;;;;;;;;16.42;53.98;101063.88;4990501;28;1005;-53
2023/07/16 06:42:35;;;;;;;;;;;;;;;16.49;53.99;101071.03;4996937;28;1906;-56
2023/07/16 06:45:00;;;;;;;;;;;;;;;16.50;54.04;101068.03;4999078;28;1325;-54
2023/07/16 06:47:26;;;;;;;;;;;;;;;16.47;54.32;101075.97;4999267;28;1353;-57
2023/07/16 06:49:51;;;;;;;;;;;;;;;16.44;54.22;101069.09;4999473;28;1179;-56
2023/07/16 06:52:20;;;;;;;;;;;;;;;16.45;54.35;101072.66;4999339;28;1305;-53
2023/07/16 06:54:47;;;;;;;;;;;;;;;16.42;54.23;101077.59;4999547;28;1393;-50
2023/07/16 06:57:13;;;;;;;;;;;;;;;16.41;54.51;101073.19;4999706;28;1388;-54
2023/07/16 06:59:38;;;;;;;;;;;;;;;16.46;54.43;101077.06;4999292;28;1520;-56
2023/07/16 07:02:04;;;;;;;;;;;;;;;16.42;54.56;101069.38;4999491;28;1987;-53
2023/07/16 07:04:30;;;;;;;;;;;;;;;16.43;54.49;101061.94;4990880;28;1570;-53
2023/07/16 07:06:55;;;;;;;;;;;;;;;16.44;54.86;101074.59;5013247;28;1364;-55
2023/07/16 07:09:20;;;;;;;;;;;;;;;16.45;54.61;101065.22;4999005;28;1350;-55
2023/07/16 07:11:46;;;;;;;;;;;;;;;16.45;54.80;101070.72;4998454;28;1266;-55
2023/07/16 07:14:11;;;;;;;;;;;;;;;16.42;54.91;101071.25;4999382;28;1345;-55
2023/07/16 07:16:37;;;;;;;;;;;;;;;16.40;54.89;101066.03;4999194;28;1415;-54
2023/07/16 07:19:02;;;;;;;;;;;;;;;16.41;55.01;101069.59;4998867;28;1333;-52
2023/07/16 07:21:28;;;;;;;;;;;;;;;16.42;55.25;101080.34;4996838;28;1316;-55
2023/07/16 07:23:53;;;;;;;;;;;;;;;16.47;55.06;101073.22;4998339;28;1985;-54
2023/07/16 07:26:19;;;;;;;;;;;;;;;16.43;55.08;101062.75;4998494;28;1415;-55
2023/07/16 07:28:44;;;;;;;;;;;;;;;16.42;55.24;101071.25;4998840;28;1388;-55
2023/07/16 07:31:10;;;;;;;;;;;;;;;16.43;55.42;101068.25;4999010;28;1044;-55
2023/07/16 07:33:35;;;;;;;;;;;;;;;16.45;55.42;101065.22;4999536;28;1031;-56
2023/07/16 07:36:01;;;;;;;;;;;;;;;16.43;55.22;101067.44;4998836;28;1167;-56
2023/07/16 07:38:26;;;;;;;;;;;;;;;16.43;55.46;101079.22;4994112;28;1024;-54
2023/07/16 07:40:52;;;;;;;;;;;;;;;16.46;55.25;101075.13;4998597;28;1037;-51
2023/07/16 07:43:17;;;;;;;;;;;;;;;16.46;55.43;101071.56;4998806;28;1902;-54
2023/07/16 07:45:43;;;;;;;;;;;;;;;16.42;55.60;101077.59;4998661;28;1163;-52
2023/07/16 07:48:09;;;;;;;;;;;;;;;16.45;55.34;101076.22;4998134;28;1144;-52
2023/07/16 07:50:34;;;;;;;;;;;;;;;16.47;55.32;101073.22;4997848;28;1048;-54
2023/07/16 07:52:59;;;;;;;;;;;;;;;16.45;55.50;101076.22;4997220;28;1068;-53
2023/07/16 07:55:25;;;;;;;;;;;;;;;16.47;55.54;101067.75;4996207;28;1087;-53
2023/07/16 07:57:50;;;;;;;;;;;;;;;16.48;55.39;101080.34;4997555;28;1120;-53
2023/07/16 08:00:16;;;;;;;;;;;;;;;16.46;55.58;101071.56;4997801;28;1384;-52
2023/07/16 08:02:41;;;;;;;;;;;;;;;16.45;55.77;101076.22;4998330;28;1988;-52
2023/07/16 08:05:07;;;;;;;;;;;;;;;16.48;55.46;101072.13;4997689;28;1281;-52
2023/07/16 08:07:33;;;;;;;;;;;;;;;16.47;55.66;101076.78;4997067;28;1196;-51
2023/07/16 08:09:58;;;;;;;;;;;;;;;16.46;55.89;101082.56;4997323;28;1218;-51
2023/07/16 08:12:24;;;;;;;;;;;;;;;16.48;55.80;101080.34;4985061;28;1087;-52
2023/07/16 08:14:49;;;;;;;;;;;;;;;16.46;55.68;101083.38;4996293;28;1234;-54
2023/07/16 08:17:15;;;;;;;;;;;;;;;16.48;55.75;101085.84;4996522;28;1091;-52
2023/07/16 08:19:40;;;;;;;;;;;;;;;16.52;55.79;101082.31;4997673;28;1152;-51
2023/07/16 08:22:05;;;;;;;;;;;;;;;16.47;55.69;101078.72;4997943;28;1902;-52
2023/07/16 08:24:31;;;;;;;;;;;;;;;16.53;55.87;101083.13;4998397;28;1175;-52
2023/07/16 08:26:56;;;;;;;;;;;;;;;16.52;55.70;101089.72;4997348;28;1126;-52
2023/07/16 08:29:22;;;;;;;;;;;;;;;16.48;55.89;101080.34;4997743;28;1040;-51
2023/07/16 08:31:47;;;;;;;;;;;;;;;16.47;56.13;101076.78;4997779;28;1187;-54
2023/07/16 08:34:13;;;;;;;;;;;;;;;16.49;55.97;101084.75;4997556;28;1214;-54
2023/07/16 08:36:38;;;;;;;;;;;;;;;16.52;55.93;101081.47;4997827;28;1207;-54
2023/07/16 08:39:05;;;;;;;;;;;;;;;16.56;55.67;101086.19;4997448;28;1103;-53
2023/07/16 08:41:31;;;;;;;;;;;;;;;16.46;56.13;101086.13;4996149;28;1184;-53
2023/07/16 08:43:56;;;;;;;;;;;;;;;16.52;55.84;101092.47;4997265;28;1906;-52
2023/07/16 08:46:21;;;;;;;;;;;;;;;16.50;56.07;101084.50;4997404;28;1132;-55
2023/07/16 08:48:47;;;;;;;;;;;;;;;16.51;56.01;101088.91;4996126;28;1016;-52
2023/07/16 08:51:14;;;;;;;;;;;;;;;16.54;55.83;101084.81;4995913;28;1039;-53
2023/07/16 08:53:39;;;;;;;;;;;;;;;16.53;56.14;101083.94;4997185;28;1196;-53
2023/07/16 08:56:05;;;;;;;;;;;;;;;16.56;56.07;101082.59;4997194;28;1231;-54
2023/07/16 08:58:30;;;;;;;;;;;;;;;16.56;56.21;101082.59;4997043;28;1155;-57
2023/07/16 09:00:56;;;;;;;;;;;;;;;16.53;56.36;101083.13;4995470;28;1139;-56
2023/07/16 09:03:21;;;;;;;;;;;;;;;16.53;56.26;101086.69;4996814;28;1971;-53
2023/07/16 09:05:47;;;;;;;;;;;;;;;16.57;56.06;101081.50;4996152;28;1175;-53
2023/07/16 09:08:13;;;;;;;;;;;;;;;16.51;56.43;101085.31;4996973;28;1195;-54
2023/07/16 09:10:40;;;;;;;;;;;;;;;16.56;56.23;101088.94;4995638;28;1081;-55
2023/07/16 09:13:05;;;;;;;;;;;;;;;16.55;56.39;101084.53;4997245;28;1254;-54
2023/07/16 09:15:31;;;;;;;;;;;;;;;16.53;56.44;101077.66;4996719;28;1230;-55
2023/07/16 09:17:56;;;;;;;;;;;;;;;16.55;56.25;101076.28;4997167;28;1083;-57
2023/07/16 09:20:25;;;;;;;;;;;;;;;16.57;56.32;101081.50;4994968;28;1152;-56
2023/07/16 09:22:53;;;;;;;;;;;;;;;16.58;56.36;101074.94;4985235;28;1898;-55
2023/07/16 09:25:19;;;;;;;;;;;;;;;16.59;56.28;101082.06;4996791;28;1246;-59
2023/07/16 09:27:48;;;;;;;;;;;;;;;16.60;56.14;101083.72;4995823;28;897;-56
2023/07/16 09:30:16;;;;;;;;;;;;;;;16.60;56.25;101081.78;4996207;28;1171;-55
2023/07/16 09:32:41;;;;;;;;;;;;;;;16.59;56.50;101085.66;4996882;28;1107;-53
2023/07/16 09:35:09;;;;;;;;;;;;;;;16.60;56.35;101080.97;4995521;28;1183;-54
2023/07/16 09:37:35;;;;;;;;;;;;;;;16.60;56.21;101078.22;4996894;28;1135;-54
2023/07/16 09:40:02;;;;;;;;;;;;;;;16.63;56.37;101079.63;4996859;28;1230;-56
2023/07/16 09:42:28;;;;;;;;;;;;;;;16.62;56.49;101080.72;4995099;28;1902;-56
2023/07/16 09:44:54;;;;;;;;;;;;;;;16.62;56.38;101081.56;5000971;28;1128;-56
2023/07/16 09:47:19;;;;;;;;;;;;;;;16.60;56.38;101079.03;4998368;28;1221;-56
2023/07/16 09:49:45;;;;;;;;;;;;;;;16.63;56.30;101074.13;4996673;28;1211;-57
2023/07/16 09:52:11;;;;;;;;;;;;;;;16.58;56.56;101069.44;4996559;28;1124;-56
2023/07/16 09:54:36;;;;;;;;;;;;;;;16.60;56.51;101070.00;4995653;28;1187;-54
2023/07/16 09:57:02;;;;;;;;;;;;;;;16.60;56.59;101072.75;4996351;28;1036;-53
2023/07/16 09:59:28;;;;;;;;;;;;;;;16.62;56.61;101073.31;4997247;28;1183;-54
2023/07/16 10:01:55;;;;;;;;;;;;;;;16.60;56.65;101078.22;4994192;28;1056;-54
2023/07/16 10:04:20;;;;;;;;;;;;;;;16.61;56.62;101066.16;4988902;28;1911;-54
2023/07/16 10:06:50;;;;;;;;;;;;;;;16.63;56.64;101066.72;4996333;28;1144;-55
2023/07/16 10:09:31;;;;;;;;;;;;;;;16.66;56.61;101070.84;4996291;28;1336;-52
2023/07/16 10:12:06;;;;;;;;;;;;;;;16.66;56.75;101057.97;4997248;28;1166;-53
2023/07/16 10:14:32;;;;;;;;;;;;;;;16.62;56.83;101059.59;5000387;28;1308;-53
2023/07/16 10:17:01;;;;;;;;;;;;;;;16.65;56.53;101067.28;4995295;28;965;-54
2023/07/16 10:19:26;;;;;;;;;;;;;;;16.61;56.77;101063.41;4999856;28;1031;-55
2023/07/16 10:21:52;;;;;;;;;;;;;;;16.64;56.69;101079.34;5000117;28;1069;-54
2023/07/16 10:24:18;;;;;;;;;;;;;;;16.65;56.57;101078.28;4999535;28;1898;-54
2023/07/16 10:26:44;;;;;;;;;;;;;;;16.65;56.63;101074.69;5000146;28;1079;-51
2023/07/16 10:29:09;;;;;;;;;;;;;;;16.64;56.84;101067.56;5000087;28;912;-54
2023/07/16 10:31:35;;;;;;;;;;;;;;;16.68;56.64;101071.44;5000002;28;1086;-53
2023/07/16 10:34:08;;;;;;;;;;;;;;;16.69;56.67;101070.31;4999302;28;1011;-50
2023/07/16 10:36:37;;;;;;;;;;;;;;;16.65;56.76;101077.41;5000009;28;1028;-54
2023/07/16 10:39:03;;;;;;;;;;;;;;;16.66;56.69;101079.94;4987642;28;1135;-54
2023/07/16 10:41:30;;;;;;;;;;;;;;;16.69;56.93;101082.13;4999706;28;862;-53
2023/07/16 10:43:56;;;;;;;;;;;;;;;16.65;56.91;101074.69;4998438;28;1914;-54
2023/07/16 10:46:21;;;;;;;;;;;;;;;16.67;56.73;101078.81;4999833;28;1032;-52
2023/07/16 10:48:47;;;;;;;;;;;;;;;16.67;56.94;101067.84;5008338;28;1051;-51
2023/07/16 10:51:16;;;;;;;;;;;;;;;16.70;56.80;101069.22;4990125;28;1109;-53
2023/07/16 10:53:42;;;;;;;;;;;;;;;16.70;56.96;101070.03;4998034;28;901;-52
2023/07/16 10:56:08;;;;;;;;;;;;;;;16.66;57.13;101065.34;4999289;28;1160;-53
2023/07/16 10:58:33;;;;;;;;;;;;;;;16.63;56.94;101065.91;4999232;28;1088;-54
2023/07/16 11:00:59;;;;;;;;;;;;;;;16.65;56.76;101058.22;4999539;28;1199;-53
2023/07/16 11:03:24;;;;;;;;;;;;;;;16.64;57.08;101073.06;4998259;28;1902;-53
2023/07/16 11:05:50;;;;;;;;;;;;;;;16.67;56.96;101070.56;5001755;28;957;-54
2023/07/16 11:08:24;;;;;;;;;;;;;;;16.69;56.74;101065.66;4999174;28;1064;-53
2023/07/16 11:10:56;;;;;;;;;;;;;;;16.67;57.09;101070.56;4999197;28;1148;-54
2023/07/16 11:13:25;;;;;;;;;;;;;;;16.63;56.83;101054.91;4997970;28;1156;-55
2023/07/16 11:15:50;;;;;;;;;;;;;;;16.67;56.92;101064.28;4991261;28;1148;-55
2023/07/16 11:18:15;;;;;;;;;;;;;;;16.65;56.81;101053.56;4998497;28;1051;-50
2023/07/16 11:20:41;;;;;;;;;;;;;;;16.65;56.98;101053.56;4999053;28;1199;-53
2023/07/16 11:23:06;;;;;;;;;;;;;;;16.69;56.79;101057.41;4998835;28;1981;-54
2023/07/16 11:25:32;;;;;;;;;;;;;;;16.63;57.01;101065.91;4987282;28;1306;-56
2023/07/16 11:27:57;;;;;;;;;;;;;;;16.64;57.10;101067.56;4998887;28;1138;-56
2023/07/16 11:30:24;;;;;;;;;;;;;;;16.64;57.12;101071.13;4998799;28;1168;-55
2023/07/16 11:32:49;;;;;;;;;;;;;;;16.65;57.08;101074.69;4998425;28;1179;-54
2023/07/16 11:35:16;;;;;;;;;;;;;;;16.61;57.08;101066.16;4999118;28;1152;-52
2023/07/16 11:37:42;;;;;;;;;;;;;;;16.68;57.04;101058.50;4998524;28;1163;-55
2023/07/16 11:40:08;;;;;;;;;;;;;;;16.63;56.94;101063.16;4998279;28;1309;-54
2023/07/16 11:42:37;;;;;;;;;;;;;;;16.60;57.11;101057.09;4999129;28;1915;-56
2023/07/16 11:45:03;;;;;;;;;;;;;;;16.63;57.19;101050.25;4998976;28;1250;-54
2023/07/16 11:47:28;;;;;;;;;;;;;;;16.61;56.99;101055.19;4998047;28;1317;-54
2023/07/16 11:49:54;;;;;;;;;;;;;;;16.63;57.13;101061.22;4998358;28;1337;-54
2023/07/16 11:52:23;;;;;;;;;;;;;;;16.62;57.00;101053.25;4998146;28;1333;-54
2023/07/16 11:54:49;;;;;;;;;;;;;;;16.62;57.05;101056.00;4998268;28;1314;-54
2023/07/16 11:57:15;;;;;;;;;;;;;;;16.64;57.18;101057.38;4998373;28;1419;-54
2023/07/16 11:59:41;;;;;;;;;;;;;;;16.64;57.18;101051.09;4998728;28;1333;-55
2023/07/16 12:02:06;;;;;;;;;;;;;;;16.65;57.17;101048.06;4998382;28;1981;-56
2023/07/16 12:04:32;;;;;;;;;;;;;;;16.63;57.26;101054.91;4998275;28;1266;-53
2023/07/16 12:06:57;;;;;;;;;;;;;;;16.65;56.90;101053.56;4998214;28;1329;-56
2023/07/16 12:09:23;;;;;;;;;;;;;;;16.63;57.19;101058.47;4998344;28;1247;-54
2023/07/16 12:11:48;;;;;;;;;;;;;;;16.67;56.87;101058.78;4998406;28;1104;-54
2023/07/16 12:14:14;;;;;;;;;;;;;;;16.64;57.15;101059.31;4998385;28;1439;-54
2023/07/16 12:16:39;;;;;;;;;;;;;;;16.65;57.03;101058.22;4997496;28;1309;-54
2023/07/16 12:19:05;;;;;;;;;;;;;;;16.70;57.03;101056.31;4998143;28;1341;-56
2023/07/16 12:21:31;;;;;;;;;;;;;;;16.65;57.27;101052.72;4996302;28;1364;-54
2023/07/16 12:23:56;;;;;;;;;;;;;;;16.67;57.11;101045.88;4978540;28;1918;-54
2023/07/16 12:26:22;;;;;;;;;;;;;;;16.69;56.83;101049.19;4993166;28;1071;-54
2023/07/16 12:28:47;;;;;;;;;;;;;;;16.65;57.18;101053.56;4997747;28;1136;-54
2023/07/16 12:31:13;;;;;;;;;;;;;;;16.67;56.95;101056.03;4998061;28;1099;-53
2023/07/16 12:33:39;;;;;;;;;;;;;;;16.69;57.00;101062.91;4998119;28;1059;-54
2023/07/16 12:36:04;;;;;;;;;;;;;;;16.65;56.92;101053.56;4997101;28;1248;-51
2023/07/16 12:38:29;;;;;;;;;;;;;;;16.65;57.15;101058.22;4997697;28;1186;-52
2023/07/16 12:40:55;;;;;;;;;;;;;;;16.69;57.02;101068.41;4994448;28;1203;-54